sensor_id;sensor_type;location;lat;lon;timestamp;P1;durP1;ratioP1;P2;durP2;ratioP2
33190;SDS011;19554;42.652;23.364;2022-08-03T00:00:04;7.38;;;1.90;;
33190;SDS011;19554;42.652;23.364;2022-08-03T00:02:30;5.38;;;2.30;;
33190;SDS011;19554;42.652;23.364;2022-08-03T00:04:56;3.53;;;1.60;;
33190;SDS011;19554;42.652;23.364;2022-08-03T00:07:21;3.20;;;1.40;;
33190;SDS011;19554;42.652;23.364;2022-08-03T00:09:47;4.18;;;1.75;;
33190;SDS011;19554;42.652;23.364;2022-08-03T00:12:12;3.60;;;1.90;;
33190;SDS011;19554;42.652;23.364;2022-08-03T00:14:37;6.25;;;1.70;;
33190;SDS011;19554;42.652;23.364;2022-08-03T00:17:03;1.63;;;1.45;;
33190;SDS011;19554;42.652;23.364;2022-08-03T00:19:28;5.05;;;1.50;;
33190;SDS011;19554;42.652;23.364;2022-08-03T00:21:54;5.70;;;1.45;;
33190;SDS011;19554;42.652;23.364;2022-08-03T00:24:19;4.97;;;1.83;;
33190;SDS011;19554;42.652;23.364;2022-08-03T00:26:45;3.13;;;2.28;;
33190;SDS011;19554;42.652;23.364;2022-08-03T00:29:11;3.40;;;2.00;;
33190;SDS011;19554;42.652;23.364;2022-08-03T00:31:36;3.03;;;1.52;;
33190;SDS011;19554;42.652;23.364;2022-08-03T00:34:01;1.65;;;1.55;;
33190;SDS011;19554;42.652;23.364;2022-08-03T00:36:27;22.17;;;8.88;;
33190;SDS011;19554;42.652;23.364;2022-08-03T00:38:53;15.65;;;5.93;;
33190;SDS011;19554;42.652;23.364;2022-08-03T00:41:18;21.90;;;10.15;;
33190;SDS011;19554;42.652;23.364;2022-08-03T00:43:44;5.03;;;2.80;;
33190;SDS011;19554;42.652;23.364;2022-08-03T00:46:11;5.00;;;2.53;;
33190;SDS011;19554;42.652;23.364;2022-08-03T00:48:37;7.00;;;2.58;;
33190;SDS011;19554;42.652;23.364;2022-08-03T00:51:02;3.15;;;2.10;;
33190;SDS011;19554;42.652;23.364;2022-08-03T00:53:28;6.47;;;2.08;;
33190;SDS011;19554;42.652;23.364;2022-08-03T00:55:54;3.85;;;2.05;;
33190;SDS011;19554;42.652;23.364;2022-08-03T00:58:19;2.85;;;1.88;;
33190;SDS011;19554;42.652;23.364;2022-08-03T01:00:45;5.28;;;1.70;;
33190;SDS011;19554;42.652;23.364;2022-08-03T01:03:10;7.10;;;2.28;;
33190;SDS011;19554;42.652;23.364;2022-08-03T01:08:21;4.05;;;1.42;;
33190;SDS011;19554;42.652;23.364;2022-08-03T01:10:59;2.00;;;1.70;;
33190;SDS011;19554;42.652;23.364;2022-08-03T01:16:15;2.15;;;1.35;;
33190;SDS011;19554;42.652;23.364;2022-08-03T01:18:51;3.30;;;1.52;;
33190;SDS011;19554;42.652;23.364;2022-08-03T01:21:25;3.53;;;2.08;;
33190;SDS011;19554;42.652;23.364;2022-08-03T01:24:03;1.92;;;1.77;;
33190;SDS011;19554;42.652;23.364;2022-08-03T01:26:39;2.47;;;1.83;;
33190;SDS011;19554;42.652;23.364;2022-08-03T01:35:03;4.40;;;1.63;;
33190;SDS011;19554;42.652;23.364;2022-08-03T01:38:08;2.53;;;1.42;;
33190;SDS011;19554;42.652;23.364;2022-08-03T01:40:35;1.80;;;1.63;;
33190;SDS011;19554;42.652;23.364;2022-08-03T01:43:03;5.18;;;1.52;;
33190;SDS011;19554;42.652;23.364;2022-08-03T01:45:31;3.08;;;1.52;;
33190;SDS011;19554;42.652;23.364;2022-08-03T01:48:00;2.53;;;1.70;;
33190;SDS011;19554;42.652;23.364;2022-08-03T01:50:28;4.43;;;1.77;;
33190;SDS011;19554;42.652;23.364;2022-08-03T01:52:55;2.70;;;1.70;;
33190;SDS011;19554;42.652;23.364;2022-08-03T01:55:22;3.65;;;1.75;;
33190;SDS011;19554;42.652;23.364;2022-08-03T01:57:52;1.50;;;1.30;;
33190;SDS011;19554;42.652;23.364;2022-08-03T02:00:19;4.85;;;1.60;;
33190;SDS011;19554;42.652;23.364;2022-08-03T02:02:46;2.17;;;1.55;;
33190;SDS011;19554;42.652;23.364;2022-08-03T02:05:14;2.17;;;1.30;;
33190;SDS011;19554;42.652;23.364;2022-08-03T02:07:40;1.70;;;1.40;;
33190;SDS011;19554;42.652;23.364;2022-08-03T02:10:09;2.13;;;1.40;;
33190;SDS011;19554;42.652;23.364;2022-08-03T02:12:37;5.15;;;1.80;;
33190;SDS011;19554;42.652;23.364;2022-08-03T02:15:04;5.32;;;1.70;;
33190;SDS011;19554;42.652;23.364;2022-08-03T02:17:31;2.28;;;1.77;;
33190;SDS011;19554;42.652;23.364;2022-08-03T02:19:58;2.63;;;1.42;;
33190;SDS011;19554;42.652;23.364;2022-08-03T02:22:25;1.88;;;1.30;;
33190;SDS011;19554;42.652;23.364;2022-08-03T02:24:51;7.70;;;1.60;;
33190;SDS011;19554;42.652;23.364;2022-08-03T02:27:19;6.03;;;1.75;;
33190;SDS011;19554;42.652;23.364;2022-08-03T02:29:48;4.18;;;1.60;;
33190;SDS011;19554;42.652;23.364;2022-08-03T02:32:18;1.90;;;1.55;;
33190;SDS011;19554;42.652;23.364;2022-08-03T02:34:49;2.55;;;1.50;;
33190;SDS011;19554;42.652;23.364;2022-08-03T02:37:18;6.05;;;1.80;;
33190;SDS011;19554;42.652;23.364;2022-08-03T02:39:48;2.28;;;1.45;;
33190;SDS011;19554;42.652;23.364;2022-08-03T02:42:17;4.05;;;1.50;;
33190;SDS011;19554;42.652;23.364;2022-08-03T02:44:47;5.70;;;1.50;;
33190;SDS011;19554;42.652;23.364;2022-08-03T02:47:15;3.55;;;2.00;;
33190;SDS011;19554;42.652;23.364;2022-08-03T02:49:44;4.28;;;1.95;;
33190;SDS011;19554;42.652;23.364;2022-08-03T02:52:12;5.10;;;1.35;;
33190;SDS011;19554;42.652;23.364;2022-08-03T02:54:39;4.13;;;1.60;;
33190;SDS011;19554;42.652;23.364;2022-08-03T02:57:06;4.03;;;1.70;;
33190;SDS011;19554;42.652;23.364;2022-08-03T02:59:33;7.43;;;1.50;;
33190;SDS011;19554;42.652;23.364;2022-08-03T03:01:59;1.65;;;1.50;;
33190;SDS011;19554;42.652;23.364;2022-08-03T03:04:27;6.18;;;1.85;;
33190;SDS011;19554;42.652;23.364;2022-08-03T03:06:54;5.70;;;1.73;;
33190;SDS011;19554;42.652;23.364;2022-08-03T03:09:20;2.05;;;1.63;;
33190;SDS011;19554;42.652;23.364;2022-08-03T03:11:48;2.55;;;1.70;;
33190;SDS011;19554;42.652;23.364;2022-08-03T03:14:15;5.30;;;2.10;;
33190;SDS011;19554;42.652;23.364;2022-08-03T03:16:43;4.53;;;1.75;;
33190;SDS011;19554;42.652;23.364;2022-08-03T03:19:11;4.50;;;2.20;;
33190;SDS011;19554;42.652;23.364;2022-08-03T03:21:38;3.15;;;2.03;;
33190;SDS011;19554;42.652;23.364;2022-08-03T03:24:04;4.63;;;1.88;;
33190;SDS011;19554;42.652;23.364;2022-08-03T03:26:32;5.22;;;2.28;;
33190;SDS011;19554;42.652;23.364;2022-08-03T03:28:58;3.55;;;1.92;;
33190;SDS011;19554;42.652;23.364;2022-08-03T03:31:26;4.05;;;2.20;;
33190;SDS011;19554;42.652;23.364;2022-08-03T03:33:51;3.85;;;2.05;;
33190;SDS011;19554;42.652;23.364;2022-08-03T03:36:17;5.00;;;2.20;;
33190;SDS011;19554;42.652;23.364;2022-08-03T03:38:43;6.70;;;2.28;;
33190;SDS011;19554;42.652;23.364;2022-08-03T03:41:08;6.05;;;2.20;;
33190;SDS011;19554;42.652;23.364;2022-08-03T03:43:34;7.90;;;2.42;;
33190;SDS011;19554;42.652;23.364;2022-08-03T03:45:59;12.60;;;2.97;;
33190;SDS011;19554;42.652;23.364;2022-08-03T03:48:25;10.70;;;3.05;;
33190;SDS011;19554;42.652;23.364;2022-08-03T03:50:52;9.07;;;2.88;;
33190;SDS011;19554;42.652;23.364;2022-08-03T03:53:17;9.40;;;3.50;;
33190;SDS011;19554;42.652;23.364;2022-08-03T03:55:43;16.17;;;3.35;;
33190;SDS011;19554;42.652;23.364;2022-08-03T03:58:08;10.10;;;3.08;;
33190;SDS011;19554;42.652;23.364;2022-08-03T04:00:34;5.20;;;2.63;;
33190;SDS011;19554;42.652;23.364;2022-08-03T04:03:00;14.82;;;3.85;;
33190;SDS011;19554;42.652;23.364;2022-08-03T04:05:25;12.00;;;3.20;;
33190;SDS011;19554;42.652;23.364;2022-08-03T04:08:10;5.30;;;2.83;;
33190;SDS011;19554;42.652;23.364;2022-08-03T04:16:13;13.30;;;3.67;;
33190;SDS011;19554;42.652;23.364;2022-08-03T04:18:42;15.45;;;3.28;;
33190;SDS011;19554;42.652;23.364;2022-08-03T04:21:12;9.63;;;2.72;;
33190;SDS011;19554;42.652;23.364;2022-08-03T04:23:42;9.15;;;3.40;;
33190;SDS011;19554;42.652;23.364;2022-08-03T04:26:11;5.03;;;2.60;;
33190;SDS011;19554;42.652;23.364;2022-08-03T04:28:38;5.65;;;2.60;;
33190;SDS011;19554;42.652;23.364;2022-08-03T04:31:07;6.97;;;2.90;;
33190;SDS011;19554;42.652;23.364;2022-08-03T04:33:33;10.02;;;2.95;;
33190;SDS011;19554;42.652;23.364;2022-08-03T04:36:03;7.45;;;2.97;;
33190;SDS011;19554;42.652;23.364;2022-08-03T04:38:31;11.30;;;3.72;;
33190;SDS011;19554;42.652;23.364;2022-08-03T04:41:00;11.55;;;3.03;;
33190;SDS011;19554;42.652;23.364;2022-08-03T04:43:27;9.40;;;2.80;;
33190;SDS011;19554;42.652;23.364;2022-08-03T04:45:54;6.13;;;3.38;;
33190;SDS011;19554;42.652;23.364;2022-08-03T04:48:21;12.13;;;3.13;;
33190;SDS011;19554;42.652;23.364;2022-08-03T04:50:46;13.02;;;3.03;;
33190;SDS011;19554;42.652;23.364;2022-08-03T04:53:12;9.85;;;3.28;;
33190;SDS011;19554;42.652;23.364;2022-08-03T04:55:38;14.32;;;4.30;;
33190;SDS011;19554;42.652;23.364;2022-08-03T04:58:03;23.25;;;5.18;;
33190;SDS011;19554;42.652;23.364;2022-08-03T05:00:30;11.85;;;3.80;;
33190;SDS011;19554;42.652;23.364;2022-08-03T05:02:56;5.15;;;3.75;;
33190;SDS011;19554;42.652;23.364;2022-08-03T05:05:21;11.00;;;5.20;;
33190;SDS011;19554;42.652;23.364;2022-08-03T05:07:47;8.77;;;3.78;;
33190;SDS011;19554;42.652;23.364;2022-08-03T05:10:13;4.95;;;3.72;;
33190;SDS011;19554;42.652;23.364;2022-08-03T05:12:39;21.05;;;4.88;;
33190;SDS011;19554;42.652;23.364;2022-08-03T05:15:05;8.50;;;4.18;;
33190;SDS011;19554;42.652;23.364;2022-08-03T05:17:31;13.35;;;6.93;;
33190;SDS011;19554;42.652;23.364;2022-08-03T05:19:58;8.32;;;4.18;;
33190;SDS011;19554;42.652;23.364;2022-08-03T05:22:23;6.35;;;3.22;;
33190;SDS011;19554;42.652;23.364;2022-08-03T05:24:49;4.43;;;2.80;;
33190;SDS011;19554;42.652;23.364;2022-08-03T05:27:14;9.50;;;2.97;;
33190;SDS011;19554;42.652;23.364;2022-08-03T05:29:46;4.45;;;3.10;;
33190;SDS011;19554;42.652;23.364;2022-08-03T05:32:13;3.78;;;2.55;;
33190;SDS011;19554;42.652;23.364;2022-08-03T05:34:39;7.95;;;2.80;;
33190;SDS011;19554;42.652;23.364;2022-08-03T05:37:05;9.45;;;2.78;;
33190;SDS011;19554;42.652;23.364;2022-08-03T05:39:33;4.50;;;2.28;;
33190;SDS011;19554;42.652;23.364;2022-08-03T05:41:59;5.35;;;2.70;;
33190;SDS011;19554;42.652;23.364;2022-08-03T05:44:25;9.80;;;3.08;;
33190;SDS011;19554;42.652;23.364;2022-08-03T05:46:50;8.70;;;3.03;;
33190;SDS011;19554;42.652;23.364;2022-08-03T05:49:16;6.38;;;2.45;;
33190;SDS011;19554;42.652;23.364;2022-08-03T05:51:42;4.18;;;2.42;;
33190;SDS011;19554;42.652;23.364;2022-08-03T05:54:08;6.38;;;2.70;;
33190;SDS011;19554;42.652;23.364;2022-08-03T05:56:33;8.43;;;2.70;;
33190;SDS011;19554;42.652;23.364;2022-08-03T05:58:59;4.43;;;2.63;;
33190;SDS011;19554;42.652;23.364;2022-08-03T06:01:24;7.68;;;2.83;;
33190;SDS011;19554;42.652;23.364;2022-08-03T06:03:50;7.03;;;3.17;;
33190;SDS011;19554;42.652;23.364;2022-08-03T06:06:16;4.97;;;2.40;;
33190;SDS011;19554;42.652;23.364;2022-08-03T06:08:42;10.05;;;3.10;;
33190;SDS011;19554;42.652;23.364;2022-08-03T06:11:08;11.55;;;2.97;;
33190;SDS011;19554;42.652;23.364;2022-08-03T06:13:34;7.65;;;2.88;;
33190;SDS011;19554;42.652;23.364;2022-08-03T06:16:00;9.77;;;2.70;;
33190;SDS011;19554;42.652;23.364;2022-08-03T06:18:26;6.78;;;2.60;;
33190;SDS011;19554;42.652;23.364;2022-08-03T06:20:51;5.72;;;3.17;;
33190;SDS011;19554;42.652;23.364;2022-08-03T06:23:17;4.72;;;2.58;;
33190;SDS011;19554;42.652;23.364;2022-08-03T06:25:42;6.90;;;2.97;;
33190;SDS011;19554;42.652;23.364;2022-08-03T06:28:08;6.43;;;3.25;;
33190;SDS011;19554;42.652;23.364;2022-08-03T06:30:34;5.68;;;2.78;;
33190;SDS011;19554;42.652;23.364;2022-08-03T06:33:00;12.55;;;3.60;;
33190;SDS011;19554;42.652;23.364;2022-08-03T06:35:26;6.72;;;2.83;;
33190;SDS011;19554;42.652;23.364;2022-08-03T06:37:52;6.38;;;2.90;;
33190;SDS011;19554;42.652;23.364;2022-08-03T06:40:19;6.80;;;3.20;;
33190;SDS011;19554;42.652;23.364;2022-08-03T06:42:54;8.85;;;2.88;;
33190;SDS011;19554;42.652;23.364;2022-08-03T06:45:20;6.88;;;2.88;;
33190;SDS011;19554;42.652;23.364;2022-08-03T06:47:45;5.68;;;2.53;;
33190;SDS011;19554;42.652;23.364;2022-08-03T06:50:11;8.45;;;3.55;;
33190;SDS011;19554;42.652;23.364;2022-08-03T06:52:36;7.80;;;2.83;;
33190;SDS011;19554;42.652;23.364;2022-08-03T06:55:02;13.48;;;3.50;;
33190;SDS011;19554;42.652;23.364;2022-08-03T06:57:28;5.45;;;2.67;;
33190;SDS011;19554;42.652;23.364;2022-08-03T06:59:54;5.95;;;3.00;;
33190;SDS011;19554;42.652;23.364;2022-08-03T07:02:25;8.15;;;3.13;;
33190;SDS011;19554;42.652;23.364;2022-08-03T07:04:51;5.03;;;3.00;;
33190;SDS011;19554;42.652;23.364;2022-08-03T07:07:16;7.43;;;3.10;;
33190;SDS011;19554;42.652;23.364;2022-08-03T07:09:43;7.07;;;3.05;;
33190;SDS011;19554;42.652;23.364;2022-08-03T07:12:08;10.15;;;3.38;;
33190;SDS011;19554;42.652;23.364;2022-08-03T07:14:34;8.77;;;3.65;;
33190;SDS011;19554;42.652;23.364;2022-08-03T07:16:59;9.00;;;4.25;;
33190;SDS011;19554;42.652;23.364;2022-08-03T07:19:24;9.90;;;4.40;;
33190;SDS011;19554;42.652;23.364;2022-08-03T07:21:50;9.18;;;4.05;;
33190;SDS011;19554;42.652;23.364;2022-08-03T07:24:15;5.55;;;3.70;;
33190;SDS011;19554;42.652;23.364;2022-08-03T07:26:41;8.02;;;3.80;;
33190;SDS011;19554;42.652;23.364;2022-08-03T07:29:06;7.40;;;4.18;;
33190;SDS011;19554;42.652;23.364;2022-08-03T07:31:31;6.75;;;3.55;;
33190;SDS011;19554;42.652;23.364;2022-08-03T07:33:57;7.93;;;3.90;;
33190;SDS011;19554;42.652;23.364;2022-08-03T07:36:22;6.32;;;3.53;;
33190;SDS011;19554;42.652;23.364;2022-08-03T07:38:48;7.60;;;3.33;;
33190;SDS011;19554;42.652;23.364;2022-08-03T07:41:14;8.18;;;3.65;;
33190;SDS011;19554;42.652;23.364;2022-08-03T07:43:40;8.80;;;4.05;;
33190;SDS011;19554;42.652;23.364;2022-08-03T07:46:05;8.90;;;3.45;;
33190;SDS011;19554;42.652;23.364;2022-08-03T07:48:31;10.52;;;3.42;;
33190;SDS011;19554;42.652;23.364;2022-08-03T07:50:56;9.73;;;3.55;;
33190;SDS011;19554;42.652;23.364;2022-08-03T07:53:21;6.47;;;3.47;;
33190;SDS011;19554;42.652;23.364;2022-08-03T07:55:47;8.63;;;3.75;;
33190;SDS011;19554;42.652;23.364;2022-08-03T07:58:12;9.80;;;3.30;;
33190;SDS011;19554;42.652;23.364;2022-08-03T08:00:41;5.95;;;3.30;;
33190;SDS011;19554;42.652;23.364;2022-08-03T08:03:08;4.47;;;3.00;;
33190;SDS011;19554;42.652;23.364;2022-08-03T08:05:34;7.55;;;3.25;;
33190;SDS011;19554;42.652;23.364;2022-08-03T08:08:00;7.47;;;3.45;;
33190;SDS011;19554;42.652;23.364;2022-08-03T08:10:26;7.95;;;3.28;;
33190;SDS011;19554;42.652;23.364;2022-08-03T08:12:52;7.57;;;3.55;;
33190;SDS011;19554;42.652;23.364;2022-08-03T08:15:17;7.53;;;3.75;;
33190;SDS011;19554;42.652;23.364;2022-08-03T08:17:47;4.78;;;3.75;;
33190;SDS011;19554;42.652;23.364;2022-08-03T08:20:19;10.13;;;3.45;;
33190;SDS011;19554;42.652;23.364;2022-08-03T08:22:46;6.80;;;3.00;;
33190;SDS011;19554;42.652;23.364;2022-08-03T08:25:12;5.43;;;3.30;;
33190;SDS011;19554;42.652;23.364;2022-08-03T08:27:41;6.60;;;3.30;;
33190;SDS011;19554;42.652;23.364;2022-08-03T08:30:12;7.07;;;2.97;;
33190;SDS011;19554;42.652;23.364;2022-08-03T08:32:39;6.72;;;3.00;;
33190;SDS011;19554;42.652;23.364;2022-08-03T08:35:05;6.20;;;3.05;;
33190;SDS011;19554;42.652;23.364;2022-08-03T08:37:32;8.00;;;3.08;;
33190;SDS011;19554;42.652;23.364;2022-08-03T08:39:58;6.82;;;3.28;;
33190;SDS011;19554;42.652;23.364;2022-08-03T08:42:23;10.18;;;3.45;;
33190;SDS011;19554;42.652;23.364;2022-08-03T08:44:49;8.93;;;3.60;;
33190;SDS011;19554;42.652;23.364;2022-08-03T08:47:16;6.70;;;3.55;;
33190;SDS011;19554;42.652;23.364;2022-08-03T08:49:43;7.65;;;3.33;;
33190;SDS011;19554;42.652;23.364;2022-08-03T08:52:12;4.95;;;3.40;;
33190;SDS011;19554;42.652;23.364;2022-08-03T08:54:40;7.97;;;3.50;;
33190;SDS011;19554;42.652;23.364;2022-08-03T08:57:08;5.95;;;3.17;;
33190;SDS011;19554;42.652;23.364;2022-08-03T08:59:35;5.90;;;3.25;;
33190;SDS011;19554;42.652;23.364;2022-08-03T09:02:01;7.15;;;3.47;;
33190;SDS011;19554;42.652;23.364;2022-08-03T09:04:29;7.90;;;3.25;;
33190;SDS011;19554;42.652;23.364;2022-08-03T09:06:55;7.63;;;3.50;;
33190;SDS011;19554;42.652;23.364;2022-08-03T09:09:21;5.50;;;3.28;;
33190;SDS011;19554;42.652;23.364;2022-08-03T09:11:49;7.47;;;3.15;;
33190;SDS011;19554;42.652;23.364;2022-08-03T09:14:14;10.82;;;3.28;;
33190;SDS011;19554;42.652;23.364;2022-08-03T09:16:56;9.23;;;3.13;;
33190;SDS011;19554;42.652;23.364;2022-08-03T09:19:29;7.20;;;3.50;;
33190;SDS011;19554;42.652;23.364;2022-08-03T09:22:17;7.93;;;3.22;;
33190;SDS011;19554;42.652;23.364;2022-08-03T09:27:21;10.82;;;3.35;;
33190;SDS011;19554;42.652;23.364;2022-08-03T09:29:47;7.03;;;2.53;;
33190;SDS011;19554;42.652;23.364;2022-08-03T09:32:13;7.97;;;2.83;;
33190;SDS011;19554;42.652;23.364;2022-08-03T09:34:39;6.05;;;2.72;;
33190;SDS011;19554;42.652;23.364;2022-08-03T09:37:11;5.95;;;3.15;;
33190;SDS011;19554;42.652;23.364;2022-08-03T09:39:39;3.10;;;2.22;;
33190;SDS011;19554;42.652;23.364;2022-08-03T09:44:38;4.47;;;2.05;;
33190;SDS011;19554;42.652;23.364;2022-08-03T09:49:34;4.80;;;2.38;;
33190;SDS011;19554;42.652;23.364;2022-08-03T09:52:01;4.55;;;1.88;;
33190;SDS011;19554;42.652;23.364;2022-08-03T09:54:36;4.47;;;2.35;;
33190;SDS011;19554;42.652;23.364;2022-08-03T09:57:02;3.22;;;2.20;;
33190;SDS011;19554;42.652;23.364;2022-08-03T09:59:29;2.75;;;2.35;;
33190;SDS011;19554;42.652;23.364;2022-08-03T10:01:57;3.45;;;2.08;;
33190;SDS011;19554;42.652;23.364;2022-08-03T10:04:24;3.28;;;2.15;;
33190;SDS011;19554;42.652;23.364;2022-08-03T10:07:03;2.67;;;1.98;;
33190;SDS011;19554;42.652;23.364;2022-08-03T10:09:31;4.38;;;2.85;;
33190;SDS011;19554;42.652;23.364;2022-08-03T10:11:57;4.78;;;2.63;;
33190;SDS011;19554;42.652;23.364;2022-08-03T10:14:40;3.58;;;2.40;;
33190;SDS011;19554;42.652;23.364;2022-08-03T10:17:06;6.38;;;2.50;;
33190;SDS011;19554;42.652;23.364;2022-08-03T10:19:33;4.53;;;2.42;;
33190;SDS011;19554;42.652;23.364;2022-08-03T10:24:57;2.80;;;2.20;;
33190;SDS011;19554;42.652;23.364;2022-08-03T10:27:26;2.38;;;2.17;;
33190;SDS011;19554;42.652;23.364;2022-08-03T10:29:56;2.35;;;2.13;;
33190;SDS011;19554;42.652;23.364;2022-08-03T10:35:13;4.47;;;2.47;;
33190;SDS011;19554;42.652;23.364;2022-08-03T10:37:59;2.70;;;2.00;;
33190;SDS011;19554;42.652;23.364;2022-08-03T10:40:28;4.32;;;2.28;;
33190;SDS011;19554;42.652;23.364;2022-08-03T10:42:58;2.33;;;1.95;;
33190;SDS011;19554;42.652;23.364;2022-08-03T10:45:27;2.40;;;2.17;;
33190;SDS011;19554;42.652;23.364;2022-08-03T10:47:55;8.65;;;6.85;;
33190;SDS011;19554;42.652;23.364;2022-08-03T10:50:22;3.83;;;2.60;;
33190;SDS011;19554;42.652;23.364;2022-08-03T10:52:58;2.53;;;2.22;;
33190;SDS011;19554;42.652;23.364;2022-08-03T10:55:38;2.63;;;2.22;;
33190;SDS011;19554;42.652;23.364;2022-08-03T11:01:10;6.90;;;2.25;;
33190;SDS011;19554;42.652;23.364;2022-08-03T11:06:17;2.20;;;2.03;;
33190;SDS011;19554;42.652;23.364;2022-08-03T11:08:45;2.95;;;2.00;;
33190;SDS011;19554;42.652;23.364;2022-08-03T11:14:02;2.47;;;2.28;;
33190;SDS011;19554;42.652;23.364;2022-08-03T11:16:33;3.65;;;1.90;;
33190;SDS011;19554;42.652;23.364;2022-08-03T11:19:03;2.97;;;2.25;;
33190;SDS011;19554;42.652;23.364;2022-08-03T11:40:37;2.25;;;1.90;;
33190;SDS011;19554;42.652;23.364;2022-08-03T11:45:59;4.47;;;2.20;;
33190;SDS011;19554;42.652;23.364;2022-08-03T11:50:57;2.10;;;1.90;;
33190;SDS011;19554;42.652;23.364;2022-08-03T11:53:23;3.25;;;1.98;;
33190;SDS011;19554;42.652;23.364;2022-08-03T11:55:49;2.55;;;1.80;;
33190;SDS011;19554;42.652;23.364;2022-08-03T11:58:17;3.90;;;2.13;;
33190;SDS011;19554;42.652;23.364;2022-08-03T12:00:45;1.70;;;1.60;;
33190;SDS011;19554;42.652;23.364;2022-08-03T12:03:14;4.25;;;2.08;;
33190;SDS011;19554;42.652;23.364;2022-08-03T12:05:46;2.20;;;2.00;;
33190;SDS011;19554;42.652;23.364;2022-08-03T12:08:17;2.90;;;2.15;;
33190;SDS011;19554;42.652;23.364;2022-08-03T12:10:52;4.60;;;2.15;;
33190;SDS011;19554;42.652;23.364;2022-08-03T12:13:19;4.68;;;2.47;;
33190;SDS011;19554;42.652;23.364;2022-08-03T12:15:52;1.95;;;1.73;;
33190;SDS011;19554;42.652;23.364;2022-08-03T12:18:19;5.68;;;2.30;;
33190;SDS011;19554;42.652;23.364;2022-08-03T12:20:46;4.20;;;2.22;;
33190;SDS011;19554;42.652;23.364;2022-08-03T12:23:14;4.88;;;2.20;;
33190;SDS011;19554;42.652;23.364;2022-08-03T12:25:40;5.13;;;2.08;;
33190;SDS011;19554;42.652;23.364;2022-08-03T12:28:19;2.10;;;1.90;;
33190;SDS011;19554;42.652;23.364;2022-08-03T12:30:50;6.18;;;2.05;;
33190;SDS011;19554;42.652;23.364;2022-08-03T12:33:18;4.05;;;1.90;;
33190;SDS011;19554;42.652;23.364;2022-08-03T12:35:44;3.22;;;1.92;;
33190;SDS011;19554;42.652;23.364;2022-08-03T12:38:11;4.25;;;2.50;;
33190;SDS011;19554;42.652;23.364;2022-08-03T12:40:37;4.80;;;2.10;;
33190;SDS011;19554;42.652;23.364;2022-08-03T12:43:10;3.88;;;2.17;;
33190;SDS011;19554;42.652;23.364;2022-08-03T12:45:37;2.53;;;1.98;;
33190;SDS011;19554;42.652;23.364;2022-08-03T12:48:02;3.78;;;1.60;;
33190;SDS011;19554;42.652;23.364;2022-08-03T12:50:34;4.43;;;2.00;;
33190;SDS011;19554;42.652;23.364;2022-08-03T12:53:01;2.53;;;2.33;;
33190;SDS011;19554;42.652;23.364;2022-08-03T12:55:30;2.70;;;2.10;;
33190;SDS011;19554;42.652;23.364;2022-08-03T12:58:02;6.57;;;2.40;;
33190;SDS011;19554;42.652;23.364;2022-08-03T13:07:11;3.30;;;2.00;;
33190;SDS011;19554;42.652;23.364;2022-08-03T13:09:45;3.10;;;2.13;;
33190;SDS011;19554;42.652;23.364;2022-08-03T13:12:17;6.32;;;2.10;;
33190;SDS011;19554;42.652;23.364;2022-08-03T13:14:47;3.78;;;2.28;;
33190;SDS011;19554;42.652;23.364;2022-08-03T13:17:15;3.13;;;2.35;;
33190;SDS011;19554;42.652;23.364;2022-08-03T13:19:42;2.75;;;1.90;;
33190;SDS011;19554;42.652;23.364;2022-08-03T13:22:17;2.08;;;1.77;;
33190;SDS011;19554;42.652;23.364;2022-08-03T13:24:46;2.47;;;2.17;;
33190;SDS011;19554;42.652;23.364;2022-08-03T13:27:13;5.35;;;2.25;;
33190;SDS011;19554;42.652;23.364;2022-08-03T13:29:39;5.93;;;2.30;;
33190;SDS011;19554;42.652;23.364;2022-08-03T13:32:06;2.13;;;1.92;;
33190;SDS011;19554;42.652;23.364;2022-08-03T13:34:31;4.03;;;2.30;;
33190;SDS011;19554;42.652;23.364;2022-08-03T13:36:57;6.43;;;2.25;;
33190;SDS011;19554;42.652;23.364;2022-08-03T13:39:23;6.55;;;2.80;;
33190;SDS011;19554;42.652;23.364;2022-08-03T13:41:48;4.03;;;2.60;;
33190;SDS011;19554;42.652;23.364;2022-08-03T13:44:14;3.97;;;2.45;;
33190;SDS011;19554;42.652;23.364;2022-08-03T13:46:40;4.63;;;2.53;;
33190;SDS011;19554;42.652;23.364;2022-08-03T13:49:06;3.08;;;2.78;;
33190;SDS011;19554;42.652;23.364;2022-08-03T13:51:32;4.10;;;2.97;;
33190;SDS011;19554;42.652;23.364;2022-08-03T13:53:58;3.90;;;2.50;;
33190;SDS011;19554;42.652;23.364;2022-08-03T13:56:24;6.00;;;2.88;;
33190;SDS011;19554;42.652;23.364;2022-08-03T13:58:50;5.78;;;3.10;;
33190;SDS011;19554;42.652;23.364;2022-08-03T14:01:16;5.28;;;2.83;;
33190;SDS011;19554;42.652;23.364;2022-08-03T14:03:41;4.40;;;2.97;;
33190;SDS011;19554;42.652;23.364;2022-08-03T14:06:07;3.97;;;2.75;;
33190;SDS011;19554;42.652;23.364;2022-08-03T14:08:32;9.73;;;3.33;;
33190;SDS011;19554;42.652;23.364;2022-08-03T14:10:58;5.65;;;2.85;;
33190;SDS011;19554;42.652;23.364;2022-08-03T14:13:23;4.45;;;3.55;;
33190;SDS011;19554;42.652;23.364;2022-08-03T14:15:49;2.70;;;2.40;;
33190;SDS011;19554;42.652;23.364;2022-08-03T14:18:15;8.10;;;2.63;;
33190;SDS011;19554;42.652;23.364;2022-08-03T14:20:42;7.30;;;3.25;;
33190;SDS011;19554;42.652;23.364;2022-08-03T14:23:08;4.82;;;2.75;;
33190;SDS011;19554;42.652;23.364;2022-08-03T14:25:34;8.02;;;2.80;;
33190;SDS011;19554;42.652;23.364;2022-08-03T14:28:00;3.95;;;2.58;;
33190;SDS011;19554;42.652;23.364;2022-08-03T14:30:25;5.10;;;2.88;;
33190;SDS011;19554;42.652;23.364;2022-08-03T14:32:51;3.17;;;2.53;;
33190;SDS011;19554;42.652;23.364;2022-08-03T14:35:16;3.40;;;2.83;;
33190;SDS011;19554;42.652;23.364;2022-08-03T14:37:42;7.00;;;2.25;;
33190;SDS011;19554;42.652;23.364;2022-08-03T14:40:07;4.22;;;2.72;;
33190;SDS011;19554;42.652;23.364;2022-08-03T14:42:33;5.00;;;2.63;;
33190;SDS011;19554;42.652;23.364;2022-08-03T14:44:58;3.47;;;2.25;;
33190;SDS011;19554;42.652;23.364;2022-08-03T14:47:24;3.70;;;2.40;;
33190;SDS011;19554;42.652;23.364;2022-08-03T14:49:50;2.75;;;2.10;;
33190;SDS011;19554;42.652;23.364;2022-08-03T14:52:15;10.88;;;2.53;;
33190;SDS011;19554;42.652;23.364;2022-08-03T14:54:40;5.07;;;2.42;;
33190;SDS011;19554;42.652;23.364;2022-08-03T14:57:06;3.30;;;2.55;;
33190;SDS011;19554;42.652;23.364;2022-08-03T14:59:32;4.15;;;2.20;;
33190;SDS011;19554;42.652;23.364;2022-08-03T15:01:57;3.92;;;2.30;;
33190;SDS011;19554;42.652;23.364;2022-08-03T15:04:22;4.25;;;2.58;;
33190;SDS011;19554;42.652;23.364;2022-08-03T15:06:48;5.63;;;2.75;;
33190;SDS011;19554;42.652;23.364;2022-08-03T15:09:13;2.42;;;2.22;;
33190;SDS011;19554;42.652;23.364;2022-08-03T15:11:39;2.80;;;2.38;;
33190;SDS011;19554;42.652;23.364;2022-08-03T15:14:05;5.20;;;2.83;;
33190;SDS011;19554;42.652;23.364;2022-08-03T15:16:31;3.30;;;3.00;;
33190;SDS011;19554;42.652;23.364;2022-08-03T15:18:57;3.33;;;3.00;;
33190;SDS011;19554;42.652;23.364;2022-08-03T15:21:23;4.13;;;2.70;;
33190;SDS011;19554;42.652;23.364;2022-08-03T15:23:48;4.00;;;3.28;;
33190;SDS011;19554;42.652;23.364;2022-08-03T15:26:14;5.53;;;2.88;;
33190;SDS011;19554;42.652;23.364;2022-08-03T15:28:39;3.30;;;2.80;;
33190;SDS011;19554;42.652;23.364;2022-08-03T15:31:04;5.32;;;2.97;;
33190;SDS011;19554;42.652;23.364;2022-08-03T15:33:30;3.33;;;2.83;;
33190;SDS011;19554;42.652;23.364;2022-08-03T15:35:56;6.03;;;3.25;;
33190;SDS011;19554;42.652;23.364;2022-08-03T15:38:21;5.38;;;3.20;;
33190;SDS011;19554;42.652;23.364;2022-08-03T15:40:47;5.75;;;3.20;;
33190;SDS011;19554;42.652;23.364;2022-08-03T15:43:13;6.63;;;3.17;;